sensor_id;sensor_type;location;lat;lon;timestamp;temperature;humidity
26947;DHT22;14501;52.282;10.560;2024-03-08T00:01:06;2.30;99.90
26947;DHT22;14501;52.282;10.560;2024-03-08T00:05:59;0.80;99.90
26947;DHT22;14501;52.282;10.560;2024-03-08T00:08:24;0.80;99.90
26947;DHT22;14501;52.282;10.560;2024-03-08T00:10:50;0.70;99.90
26947;DHT22;14501;52.282;10.560;2024-03-08T00:13:16;0.70;99.90
26947;DHT22;14501;52.282;10.560;2024-03-08T00:18:07;0.60;99.90
26947;DHT22;14501;52.282;10.560;2024-03-08T00:20:33;0.60;99.90
26947;DHT22;14501;52.282;10.560;2024-03-08T00:22:59;0.60;99.90
26947;DHT22;14501;52.282;10.560;2024-03-08T00:25:25;0.50;99.90
26947;DHT22;14501;52.282;10.560;2024-03-08T00:27:50;0.40;99.90
26947;DHT22;14501;52.282;10.560;2024-03-08T00:30:16;0.40;99.90
26947;DHT22;14501;52.282;10.560;2024-03-08T00:32:42;0.40;99.90
26947;DHT22;14501;52.282;10.560;2024-03-08T00:35:07;0.40;99.90
26947;DHT22;14501;52.282;10.560;2024-03-08T00:37:33;0.40;99.90
26947;DHT22;14501;52.282;10.560;2024-03-08T00:40:01;0.40;99.90
26947;DHT22;14501;52.282;10.560;2024-03-08T00:42:27;0.50;99.90
26947;DHT22;14501;52.282;10.560;2024-03-08T00:44:53;0.50;99.90
26947;DHT22;14501;52.282;10.560;2024-03-08T00:47:18;0.40;99.90
26947;DHT22;14501;52.282;10.560;2024-03-08T00:49:44;0.50;99.90
26947;DHT22;14501;52.282;10.560;2024-03-08T00:57:02;0.60;99.90
26947;DHT22;14501;52.282;10.560;2024-03-08T00:59:31;0.60;99.90
26947;DHT22;14501;52.282;10.560;2024-03-08T01:02:01;0.60;99.90
26947;DHT22;14501;52.282;10.560;2024-03-08T01:04:27;0.70;99.90
26947;DHT22;14501;52.282;10.560;2024-03-08T01:06:56;0.30;99.90
26947;DHT22;14501;52.282;10.560;2024-03-08T01:09:23;0.70;99.90
26947;DHT22;14501;52.282;10.560;2024-03-08T01:11:49;0.60;99.90
26947;DHT22;14501;52.282;10.560;2024-03-08T01:14:15;0.50;99.90
26947;DHT22;14501;52.282;10.560;2024-03-08T01:16:40;0.50;99.90
26947;DHT22;14501;52.282;10.560;2024-03-08T01:19:06;0.30;99.90
26947;DHT22;14501;52.282;10.560;2024-03-08T01:21:32;0.40;99.90
26947;DHT22;14501;52.282;10.560;2024-03-08T01:23:57;0.40;99.90
26947;DHT22;14501;52.282;10.560;2024-03-08T01:26:23;-0.30;99.90
26947;DHT22;14501;52.282;10.560;2024-03-08T01:28:49;0.20;99.90
26947;DHT22;14501;52.282;10.560;2024-03-08T01:31:15;0.10;99.90
26947;DHT22;14501;52.282;10.560;2024-03-08T01:33:41;0.10;99.90
26947;DHT22;14501;52.282;10.560;2024-03-08T01:36:07;0.00;99.90
26947;DHT22;14501;52.282;10.560;2024-03-08T01:38:33;0.00;99.90
26947;DHT22;14501;52.282;10.560;2024-03-08T01:41:01;-0.80;99.90
26947;DHT22;14501;52.282;10.560;2024-03-08T01:43:28;-0.20;99.90
26947;DHT22;14501;52.282;10.560;2024-03-08T01:45:55;-0.10;99.90
26947;DHT22;14501;52.282;10.560;2024-03-08T01:48:23;-0.30;99.90
26947;DHT22;14501;52.282;10.560;2024-03-08T01:50:49;-0.30;99.90
26947;DHT22;14501;52.282;10.560;2024-03-08T01:53:16;-0.20;99.90
26947;DHT22;14501;52.282;10.560;2024-03-08T01:55:45;-0.40;99.90
26947;DHT22;14501;52.282;10.560;2024-03-08T01:58:12;-0.50;99.90
26947;DHT22;14501;52.282;10.560;2024-03-08T02:00:42;-0.50;99.90
26947;DHT22;14501;52.282;10.560;2024-03-08T02:03:09;-0.40;99.90
26947;DHT22;14501;52.282;10.560;2024-03-08T02:05:35;-0.70;99.90
26947;DHT22;14501;52.282;10.560;2024-03-08T02:08:01;-0.60;99.90
26947;DHT22;14501;52.282;10.560;2024-03-08T02:10:28;-0.70;99.90
26947;DHT22;14501;52.282;10.560;2024-03-08T02:12:54;-1.00;99.90
26947;DHT22;14501;52.282;10.560;2024-03-08T02:15:20;-0.70;99.90
26947;DHT22;14501;52.282;10.560;2024-03-08T02:17:46;-0.80;99.90
26947;DHT22;14501;52.282;10.560;2024-03-08T02:20:12;-0.80;99.90
26947;DHT22;14501;52.282;10.560;2024-03-08T02:22:38;-0.70;99.90
26947;DHT22;14501;52.282;10.560;2024-03-08T02:25:04;-0.80;99.90
26947;DHT22;14501;52.282;10.560;2024-03-08T02:27:31;-0.80;99.90
26947;DHT22;14501;52.282;10.560;2024-03-08T02:29:57;-0.90;99.90
26947;DHT22;14501;52.282;10.560;2024-03-08T02:32:23;-0.90;99.90
26947;DHT22;14501;52.282;10.560;2024-03-08T02:34:49;-0.80;99.90
26947;DHT22;14501;52.282;10.560;2024-03-08T02:37:16;-0.80;99.90
26947;DHT22;14501;52.282;10.560;2024-03-08T02:39:41;-0.90;99.90
26947;DHT22;14501;52.282;10.560;2024-03-08T02:42:07;-0.90;99.90
26947;DHT22;14501;52.282;10.560;2024-03-08T02:44:33;-0.80;99.90
26947;DHT22;14501;52.282;10.560;2024-03-08T02:46:59;-0.80;99.90
26947;DHT22;14501;52.282;10.560;2024-03-08T02:49:25;-0.90;99.90
26947;DHT22;14501;52.282;10.560;2024-03-08T02:51:52;-0.90;99.90
26947;DHT22;14501;52.282;10.560;2024-03-08T02:54:18;-1.00;99.90
26947;DHT22;14501;52.282;10.560;2024-03-08T02:56:44;-1.10;99.90
26947;DHT22;14501;52.282;10.560;2024-03-08T02:59:12;-1.00;99.90
26947;DHT22;14501;52.282;10.560;2024-03-08T03:01:38;-1.10;99.90
26947;DHT22;14501;52.282;10.560;2024-03-08T03:04:04;-1.00;99.90
26947;DHT22;14501;52.282;10.560;2024-03-08T03:08:56;-1.00;99.90
26947;DHT22;14501;52.282;10.560;2024-03-08T03:16:21;-0.60;99.90
26947;DHT22;14501;52.282;10.560;2024-03-08T03:21:13;-1.20;99.90
26947;DHT22;14501;52.282;10.560;2024-03-08T03:23:40;-1.20;99.90
26947;DHT22;14501;52.282;10.560;2024-03-08T03:26:06;-1.30;99.90
26947;DHT22;14501;52.282;10.560;2024-03-08T03:28:37;-1.30;99.90
26947;DHT22;14501;52.282;10.560;2024-03-08T03:33:30;-1.30;99.90
26947;DHT22;14501;52.282;10.560;2024-03-08T03:35:56;-1.30;99.90
26947;DHT22;14501;52.282;10.560;2024-03-08T03:38:21;-1.30;99.90
26947;DHT22;14501;52.282;10.560;2024-03-08T03:40:49;-1.20;99.90
26947;DHT22;14501;52.282;10.560;2024-03-08T03:48:09;-1.30;99.90
26947;DHT22;14501;52.282;10.560;2024-03-08T03:55:28;-1.30;99.90
26947;DHT22;14501;52.282;10.560;2024-03-08T03:57:54;-2.80;99.90
26947;DHT22;14501;52.282;10.560;2024-03-08T04:00:20;-1.30;99.90
26947;DHT22;14501;52.282;10.560;2024-03-08T04:05:13;-1.30;99.90
26947;DHT22;14501;52.282;10.560;2024-03-08T04:10:06;-1.40;99.90
26947;DHT22;14501;52.282;10.560;2024-03-08T04:12:36;-1.30;99.90
26947;DHT22;14501;52.282;10.560;2024-03-08T04:15:01;-1.30;99.90
26947;DHT22;14501;52.282;10.560;2024-03-08T04:17:27;-1.20;99.90
26947;DHT22;14501;52.282;10.560;2024-03-08T04:22:19;-1.10;99.90
26947;DHT22;14501;52.282;10.560;2024-03-08T04:24:45;-1.10;99.90
26947;DHT22;14501;52.282;10.560;2024-03-08T04:29:37;-1.00;99.90
26947;DHT22;14501;52.282;10.560;2024-03-08T04:32:04;-1.10;99.90
26947;DHT22;14501;52.282;10.560;2024-03-08T04:34:30;-1.00;99.90
26947;DHT22;14501;52.282;10.560;2024-03-08T04:36:59;-1.00;99.90
26947;DHT22;14501;52.282;10.560;2024-03-08T04:41:54;-0.90;99.90
26947;DHT22;14501;52.282;10.560;2024-03-08T04:44:21;-0.60;99.90
26947;DHT22;14501;52.282;10.560;2024-03-08T04:46:48;-0.90;99.90
26947;DHT22;14501;52.282;10.560;2024-03-08T04:49:13;-1.00;99.90
26947;DHT22;14501;52.282;10.560;2024-03-08T04:56:31;-1.00;99.90
26947;DHT22;14501;52.282;10.560;2024-03-08T04:58:57;-1.10;99.90
26947;DHT22;14501;52.282;10.560;2024-03-08T05:01:23;-1.10;99.90
26947;DHT22;14501;52.282;10.560;2024-03-08T05:03:48;-1.00;99.90
26947;DHT22;14501;52.282;10.560;2024-03-08T05:06:16;-1.00;99.90
26947;DHT22;14501;52.282;10.560;2024-03-08T05:08:41;-1.00;99.90
26947;DHT22;14501;52.282;10.560;2024-03-08T05:11:07;-1.00;99.90
26947;DHT22;14501;52.282;10.560;2024-03-08T05:13:32;-1.00;99.90
26947;DHT22;14501;52.282;10.560;2024-03-08T05:15:59;-1.00;99.90
26947;DHT22;14501;52.282;10.560;2024-03-08T05:18:25;-1.10;99.90
26947;DHT22;14501;52.282;10.560;2024-03-08T05:25:45;-1.10;99.90
26947;DHT22;14501;52.282;10.560;2024-03-08T05:40:23;-1.20;99.90
26947;DHT22;14501;52.282;10.560;2024-03-08T05:42:49;-1.30;99.90
26947;DHT22;14501;52.282;10.560;2024-03-08T05:45:15;-1.40;99.90
26947;DHT22;14501;52.282;10.560;2024-03-08T05:47:40;-1.10;99.90
26947;DHT22;14501;52.282;10.560;2024-03-08T05:50:06;-1.30;99.90
26947;DHT22;14501;52.282;10.560;2024-03-08T05:52:35;-1.30;99.90
26947;DHT22;14501;52.282;10.560;2024-03-08T05:55:01;-1.30;99.90
26947;DHT22;14501;52.282;10.560;2024-03-08T05:57:28;-1.30;99.90
26947;DHT22;14501;52.282;10.560;2024-03-08T06:02:19;-1.20;99.90
26947;DHT22;14501;52.282;10.560;2024-03-08T06:04:46;-1.10;99.90
26947;DHT22;14501;52.282;10.560;2024-03-08T06:07:12;-1.10;99.90
26947;DHT22;14501;52.282;10.560;2024-03-08T06:09:38;-1.10;99.90
26947;DHT22;14501;52.282;10.560;2024-03-08T06:16:57;-0.80;99.90
26947;DHT22;14501;52.282;10.560;2024-03-08T06:19:23;-0.80;99.90
26947;DHT22;14501;52.282;10.560;2024-03-08T06:24:14;-0.40;99.90
26947;DHT22;14501;52.282;10.560;2024-03-08T06:33:58;-0.40;99.90
26947;DHT22;14501;52.282;10.560;2024-03-08T06:36:24;-0.40;99.90
26947;DHT22;14501;52.282;10.560;2024-03-08T06:38:50;-0.40;99.90
26947;DHT22;14501;52.282;10.560;2024-03-08T06:41:16;-0.10;99.90
26947;DHT22;14501;52.282;10.560;2024-03-08T06:43:45;0.50;99.90
26947;DHT22;14501;52.282;10.560;2024-03-08T06:46:12;0.50;99.90
26947;DHT22;14501;52.282;10.560;2024-03-08T06:48:38;0.70;99.90
26947;DHT22;14501;52.282;10.560;2024-03-08T06:51:05;0.80;99.90
26947;DHT22;14501;52.282;10.560;2024-03-08T06:53:31;0.60;99.90
26947;DHT22;14501;52.282;10.560;2024-03-08T06:55:59;0.90;99.90
26947;DHT22;14501;52.282;10.560;2024-03-08T06:58:25;0.90;99.90
26947;DHT22;14501;52.282;10.560;2024-03-08T07:00:50;0.80;99.90
26947;DHT22;14501;52.282;10.560;2024-03-08T07:03:17;1.00;99.90
26947;DHT22;14501;52.282;10.560;2024-03-08T07:05:43;0.80;99.90
26947;DHT22;14501;52.282;10.560;2024-03-08T07:10:35;1.10;99.90
26947;DHT22;14501;52.282;10.560;2024-03-08T07:13:02;1.10;99.90
26947;DHT22;14501;52.282;10.560;2024-03-08T07:17:54;1.30;99.90
26947;DHT22;14501;52.282;10.560;2024-03-08T07:22:47;1.40;99.90
26947;DHT22;14501;52.282;10.560;2024-03-08T07:25:19;1.30;99.90
26947;DHT22;14501;52.282;10.560;2024-03-08T07:27:54;1.40;99.90
26947;DHT22;14501;52.282;10.560;2024-03-08T07:30:22;1.50;99.90
26947;DHT22;14501;52.282;10.560;2024-03-08T07:33:06;1.70;99.90
26947;DHT22;14501;52.282;10.560;2024-03-08T07:35:33;1.80;99.90
26947;DHT22;14501;52.282;10.560;2024-03-08T07:38:03;1.70;99.90
26947;DHT22;14501;52.282;10.560;2024-03-08T07:40:30;1.90;99.90
26947;DHT22;14501;52.282;10.560;2024-03-08T07:42:55;2.00;99.90
26947;DHT22;14501;52.282;10.560;2024-03-08T07:45:22;2.00;99.90
26947;DHT22;14501;52.282;10.560;2024-03-08T07:50:13;2.40;99.90
26947;DHT22;14501;52.282;10.560;2024-03-08T07:52:42;2.40;99.90
26947;DHT22;14501;52.282;10.560;2024-03-08T07:55:08;3.00;99.90
26947;DHT22;14501;52.282;10.560;2024-03-08T07:57:33;2.80;99.90
26947;DHT22;14501;52.282;10.560;2024-03-08T07:59:59;2.80;99.90
26947;DHT22;14501;52.282;10.560;2024-03-08T08:02:25;2.90;99.90
26947;DHT22;14501;52.282;10.560;2024-03-08T08:04:50;3.00;99.90
26947;DHT22;14501;52.282;10.560;2024-03-08T08:07:16;3.10;99.90
26947;DHT22;14501;52.282;10.560;2024-03-08T08:09:42;3.20;99.90
26947;DHT22;14501;52.282;10.560;2024-03-08T08:12:11;3.50;99.90
26947;DHT22;14501;52.282;10.560;2024-03-08T08:14:38;3.60;99.90
26947;DHT22;14501;52.282;10.560;2024-03-08T08:17:04;3.70;99.90
26947;DHT22;14501;52.282;10.560;2024-03-08T08:19:30;4.20;99.90
26947;DHT22;14501;52.282;10.560;2024-03-08T08:21:57;4.00;99.90
26947;DHT22;14501;52.282;10.560;2024-03-08T08:24:23;4.20;99.90
26947;DHT22;14501;52.282;10.560;2024-03-08T08:26:48;4.30;99.90
26947;DHT22;14501;52.282;10.560;2024-03-08T08:29:14;4.30;99.90
26947;DHT22;14501;52.282;10.560;2024-03-08T08:31:40;4.40;99.90
26947;DHT22;14501;52.282;10.560;2024-03-08T08:36:32;4.80;99.90
26947;DHT22;14501;52.282;10.560;2024-03-08T08:38:59;5.00;99.90
26947;DHT22;14501;52.282;10.560;2024-03-08T08:41:25;8.70;99.90
26947;DHT22;14501;52.282;10.560;2024-03-08T08:43:50;7.60;99.90
26947;DHT22;14501;52.282;10.560;2024-03-08T08:46:19;9.60;99.90
26947;DHT22;14501;52.282;10.560;2024-03-08T08:51:12;12.50;99.90
26947;DHT22;14501;52.282;10.560;2024-03-08T08:53:41;14.60;99.90
26947;DHT22;14501;52.282;10.560;2024-03-08T08:56:11;15.90;99.90
26947;DHT22;14501;52.282;10.560;2024-03-08T08:58:44;16.70;99.20
26947;DHT22;14501;52.282;10.560;2024-03-08T09:01:10;17.60;96.10
26947;DHT22;14501;52.282;10.560;2024-03-08T09:03:37;18.20;93.60
26947;DHT22;14501;52.282;10.560;2024-03-08T09:06:06;18.90;92.00
26947;DHT22;14501;52.282;10.560;2024-03-08T09:08:35;19.80;91.30
26947;DHT22;14501;52.282;10.560;2024-03-08T09:11:01;20.30;90.40
26947;DHT22;14501;52.282;10.560;2024-03-08T09:13:27;20.60;84.50
26947;DHT22;14501;52.282;10.560;2024-03-08T09:15:53;20.40;81.90
26947;DHT22;14501;52.282;10.560;2024-03-08T09:18:18;19.80;83.30
26947;DHT22;14501;52.282;10.560;2024-03-08T09:20:45;21.90;83.10
26947;DHT22;14501;52.282;10.560;2024-03-08T09:23:10;20.10;83.80
26947;DHT22;14501;52.282;10.560;2024-03-08T09:25:36;19.50;81.80
26947;DHT22;14501;52.282;10.560;2024-03-08T09:28:01;19.30;81.90
26947;DHT22;14501;52.282;10.560;2024-03-08T09:32:54;19.60;82.30
26947;DHT22;14501;52.282;10.560;2024-03-08T09:35:19;19.90;81.30
26947;DHT22;14501;52.282;10.560;2024-03-08T09:37:45;20.10;81.30
26947;DHT22;14501;52.282;10.560;2024-03-08T09:40:13;20.50;81.00
26947;DHT22;14501;52.282;10.560;2024-03-08T09:42:41;20.40;80.40
26947;DHT22;14501;52.282;10.560;2024-03-08T09:45:11;21.10;79.40
26947;DHT22;14501;52.282;10.560;2024-03-08T09:47:42;20.80;77.00
26947;DHT22;14501;52.282;10.560;2024-03-08T09:50:08;20.80;78.40
26947;DHT22;14501;52.282;10.560;2024-03-08T09:52:47;20.70;77.60
26947;DHT22;14501;52.282;10.560;2024-03-08T09:55:12;20.10;80.00
26947;DHT22;14501;52.282;10.560;2024-03-08T09:57:39;20.70;79.20
26947;DHT22;14501;52.282;10.560;2024-03-08T10:00:06;20.80;77.90
26947;DHT22;14501;52.282;10.560;2024-03-08T10:02:47;20.90;77.60
26947;DHT22;14501;52.282;10.560;2024-03-08T10:05:13;20.60;77.30
26947;DHT22;14501;52.282;10.560;2024-03-08T10:07:39;20.40;76.60
26947;DHT22;14501;52.282;10.560;2024-03-08T10:10:05;19.70;80.10
26947;DHT22;14501;52.282;10.560;2024-03-08T10:12:34;19.40;79.90
26947;DHT22;14501;52.282;10.560;2024-03-08T10:15:00;19.00;81.90
26947;DHT22;14501;52.282;10.560;2024-03-08T10:17:26;19.10;80.80
26947;DHT22;14501;52.282;10.560;2024-03-08T10:19:52;18.60;81.30
26947;DHT22;14501;52.282;10.560;2024-03-08T10:22:19;17.60;83.10
26947;DHT22;14501;52.282;10.560;2024-03-08T10:24:47;16.90;86.00
26947;DHT22;14501;52.282;10.560;2024-03-08T10:27:16;15.60;87.80
26947;DHT22;14501;52.282;10.560;2024-03-08T10:29:41;14.90;90.70
26947;DHT22;14501;52.282;10.560;2024-03-08T10:32:09;14.10;92.30
26947;DHT22;14501;52.282;10.560;2024-03-08T10:34:35;13.20;92.20
26947;DHT22;14501;52.282;10.560;2024-03-08T10:37:04;12.80;92.90
26947;DHT22;14501;52.282;10.560;2024-03-08T10:39:37;12.10;93.80
26947;DHT22;14501;52.282;10.560;2024-03-08T10:42:04;11.90;94.40
26947;DHT22;14501;52.282;10.560;2024-03-08T10:47:18;11.50;95.80
26947;DHT22;14501;52.282;10.560;2024-03-08T10:49:59;11.50;95.40
26947;DHT22;14501;52.282;10.560;2024-03-08T10:52:30;11.30;96.10
26947;DHT22;14501;52.282;10.560;2024-03-08T10:54:57;11.60;96.70
26947;DHT22;14501;52.282;10.560;2024-03-08T10:57:24;11.80;95.80
26947;DHT22;14501;52.282;10.560;2024-03-08T10:59:50;11.90;95.20
26947;DHT22;14501;52.282;10.560;2024-03-08T11:02:17;11.70;95.50
26947;DHT22;14501;52.282;10.560;2024-03-08T11:04:50;11.50;95.50
26947;DHT22;14501;52.282;10.560;2024-03-08T11:07:17;11.50;96.40
26947;DHT22;14501;52.282;10.560;2024-03-08T11:09:45;11.50;97.00
26947;DHT22;14501;52.282;10.560;2024-03-08T11:12:18;11.60;96.80
26947;DHT22;14501;52.282;10.560;2024-03-08T11:14:49;11.50;96.50
26947;DHT22;14501;52.282;10.560;2024-03-08T11:17:20;11.50;96.60
26947;DHT22;14501;52.282;10.560;2024-03-08T11:19:48;11.40;97.20
26947;DHT22;14501;52.282;10.560;2024-03-08T11:22:21;10.80;97.00
26947;DHT22;14501;52.282;10.560;2024-03-08T11:24:49;10.40;98.00
26947;DHT22;14501;52.282;10.560;2024-03-08T11:27:15;10.30;98.20
26947;DHT22;14501;52.282;10.560;2024-03-08T11:29:41;10.10;98.70
26947;DHT22;14501;52.282;10.560;2024-03-08T11:34:32;10.00;97.50
26947;DHT22;14501;52.282;10.560;2024-03-08T11:36:59;10.00;98.30
26947;DHT22;14501;52.282;10.560;2024-03-08T11:39:26;10.00;97.60
26947;DHT22;14501;52.282;10.560;2024-03-08T11:41:51;10.10;98.10
26947;DHT22;14501;52.282;10.560;2024-03-08T11:44:17;10.10;98.30
26947;DHT22;14501;52.282;10.560;2024-03-08T11:46:43;10.20;98.50
26947;DHT22;14501;52.282;10.560;2024-03-08T11:49:13;10.30;98.40
26947;DHT22;14501;52.282;10.560;2024-03-08T11:51:39;10.40;97.80
26947;DHT22;14501;52.282;10.560;2024-03-08T11:54:10;10.30;96.90
26947;DHT22;14501;52.282;10.560;2024-03-08T11:56:37;10.30;97.50
26947;DHT22;14501;52.282;10.560;2024-03-08T11:59:03;10.40;97.90
26947;DHT22;14501;52.282;10.560;2024-03-08T12:01:28;10.30;98.10
26947;DHT22;14501;52.282;10.560;2024-03-08T12:03:55;10.70;99.00
26947;DHT22;14501;52.282;10.560;2024-03-08T12:06:24;10.70;98.20
26947;DHT22;14501;52.282;10.560;2024-03-08T12:08:50;11.00;97.50
26947;DHT22;14501;52.282;10.560;2024-03-08T12:11:17;11.10;96.80
26947;DHT22;14501;52.282;10.560;2024-03-08T12:13:48;10.70;95.90
26947;DHT22;14501;52.282;10.560;2024-03-08T12:16:17;10.60;96.10
26947;DHT22;14501;52.282;10.560;2024-03-08T12:18:53;10.50;96.10
26947;DHT22;14501;52.282;10.560;2024-03-08T12:21:21;10.20;96.20
26947;DHT22;14501;52.282;10.560;2024-03-08T12:24:05;9.70;97.10
26947;DHT22;14501;52.282;10.560;2024-03-08T12:26:35;9.70;97.90
26947;DHT22;14501;52.282;10.560;2024-03-08T12:29:21;9.70;98.70
26947;DHT22;14501;52.282;10.560;2024-03-08T12:31:52;9.80;99.30
26947;DHT22;14501;52.282;10.560;2024-03-08T12:34:21;10.00;98.50
26947;DHT22;14501;52.282;10.560;2024-03-08T12:36:48;10.00;98.90
26947;DHT22;14501;52.282;10.560;2024-03-08T12:39:16;10.10;98.80
26947;DHT22;14501;52.282;10.560;2024-03-08T12:41:42;10.10;98.40
26947;DHT22;14501;52.282;10.560;2024-03-08T12:44:08;10.00;97.50
26947;DHT22;14501;52.282;10.560;2024-03-08T12:46:37;9.90;97.90
26947;DHT22;14501;52.282;10.560;2024-03-08T12:49:07;9.90;98.60
26947;DHT22;14501;52.282;10.560;2024-03-08T12:51:33;9.90;98.80
26947;DHT22;14501;52.282;10.560;2024-03-08T12:53:59;10.10;98.50
26947;DHT22;14501;52.282;10.560;2024-03-08T12:56:32;10.20;98.30
26947;DHT22;14501;52.282;10.560;2024-03-08T12:58:59;10.20;97.80
26947;DHT22;14501;52.282;10.560;2024-03-08T13:01:25;10.20;98.20
26947;DHT22;14501;52.282;10.560;2024-03-08T13:03:51;9.90;98.00
26947;DHT22;14501;52.282;10.560;2024-03-08T13:06:16;9.80;99.10
26947;DHT22;14501;52.282;10.560;2024-03-08T13:08:42;10.00;98.20
26947;DHT22;14501;52.282;10.560;2024-03-08T13:11:09;10.00;98.30
26947;DHT22;14501;52.282;10.560;2024-03-08T13:13:37;10.00;97.60
26947;DHT22;14501;52.282;10.560;2024-03-08T13:16:06;9.90;98.00
26947;DHT22;14501;52.282;10.560;2024-03-08T13:18:37;10.00;98.20
26947;DHT22;14501;52.282;10.560;2024-03-08T13:21:03;10.10;98.30
26947;DHT22;14501;52.282;10.560;2024-03-08T13:23:36;10.20;97.80
26947;DHT22;14501;52.282;10.560;2024-03-08T13:26:12;10.20;97.90
26947;DHT22;14501;52.282;10.560;2024-03-08T13:28:50;10.00;98.20
26947;DHT22;14501;52.282;10.560;2024-03-08T13:31:19;10.00;98.60
26947;DHT22;14501;52.282;10.560;2024-03-08T13:33:45;9.90;98.20
26947;DHT22;14501;52.282;10.560;2024-03-08T13:36:12;9.90;98.80
26947;DHT22;14501;52.282;10.560;2024-03-08T13:38:45;9.80;98.60
26947;DHT22;14501;52.282;10.560;2024-03-08T13:41:11;9.70;98.80
26947;DHT22;14501;52.282;10.560;2024-03-08T13:43:37;9.60;99.30
26947;DHT22;14501;52.282;10.560;2024-03-08T13:46:03;9.60;99.60
26947;DHT22;14501;52.282;10.560;2024-03-08T13:48:29;9.60;99.80
26947;DHT22;14501;52.282;10.560;2024-03-08T13:50:56;9.50;99.90
26947;DHT22;14501;52.282;10.560;2024-03-08T13:53:22;9.50;99.90
26947;DHT22;14501;52.282;10.560;2024-03-08T13:55:49;9.50;99.90
26947;DHT22;14501;52.282;10.560;2024-03-08T13:58:15;9.40;99.90
26947;DHT22;14501;52.282;10.560;2024-03-08T14:00:41;9.50;99.90
26947;DHT22;14501;52.282;10.560;2024-03-08T14:03:09;9.40;99.90
26947;DHT22;14501;52.282;10.560;2024-03-08T14:05:38;9.40;99.90
26947;DHT22;14501;52.282;10.560;2024-03-08T14:08:08;9.40;99.90
26947;DHT22;14501;52.282;10.560;2024-03-08T14:10:34;9.30;99.90
26947;DHT22;14501;52.282;10.560;2024-03-08T14:13:00;9.20;99.90
26947;DHT22;14501;52.282;10.560;2024-03-08T14:15:28;9.10;99.90
26947;DHT22;14501;52.282;10.560;2024-03-08T14:17:54;9.10;99.90
26947;DHT22;14501;52.282;10.560;2024-03-08T14:20:21;9.00;99.90
26947;DHT22;14501;52.282;10.560;2024-03-08T14:22:53;9.10;99.90
26947;DHT22;14501;52.282;10.560;2024-03-08T14:25:20;9.10;99.80
26947;DHT22;14501;52.282;10.560;2024-03-08T14:27:52;9.10;99.70
26947;DHT22;14501;52.282;10.560;2024-03-08T14:30:27;9.00;99.90
26947;DHT22;14501;52.282;10.560;2024-03-08T14:33:04;9.10;99.90
26947;DHT22;14501;52.282;10.560;2024-03-08T14:35:35;9.00;99.90
26947;DHT22;14501;52.282;10.560;2024-03-08T14:38:01;9.00;99.90
26947;DHT22;14501;52.282;10.560;2024-03-08T14:40:27;9.10;99.90
26947;DHT22;14501;52.282;10.560;2024-03-08T14:42:52;9.10;99.90
26947;DHT22;14501;52.282;10.560;2024-03-08T14:45:19;9.10;99.90
26947;DHT22;14501;52.282;10.560;2024-03-08T14:47:48;9.10;99.90
26947;DHT22;14501;52.282;10.560;2024-03-08T14:50:21;9.00;99.80
26947;DHT22;14501;52.282;10.560;2024-03-08T14:52:51;9.00;99.90
26947;DHT22;14501;52.282;10.560;2024-03-08T14:55:17;8.90;99.80
26947;DHT22;14501;52.282;10.560;2024-03-08T14:57:47;8.90;99.90
26947;DHT22;14501;52.282;10.560;2024-03-08T15:00:14;8.90;99.90
26947;DHT22;14501;52.282;10.560;2024-03-08T15:02:54;8.90;99.90
26947;DHT22;14501;52.282;10.560;2024-03-08T15:05:20;8.80;99.90
26947;DHT22;14501;52.282;10.560;2024-03-08T15:07:47;8.80;99.90
26947;DHT22;14501;52.282;10.560;2024-03-08T15:10:14;8.90;99.90
26947;DHT22;14501;52.282;10.560;2024-03-08T15:12:42;8.90;99.90
26947;DHT22;14501;52.282;10.560;2024-03-08T15:15:11;8.80;99.90
26947;DHT22;14501;52.282;10.560;2024-03-08T15:17:39;9.80;99.90
26947;DHT22;14501;52.282;10.560;2024-03-08T15:20:08;8.90;99.90
26947;DHT22;14501;52.282;10.560;2024-03-08T15:22:47;8.90;99.90
26947;DHT22;14501;52.282;10.560;2024-03-08T15:25:12;8.90;99.90
26947;DHT22;14501;52.282;10.560;2024-03-08T15:27:48;8.90;99.90
26947;DHT22;14501;52.282;10.560;2024-03-08T15:30:14;8.80;99.90
26947;DHT22;14501;52.282;10.560;2024-03-08T15:32:45;8.80;99.90
26947;DHT22;14501;52.282;10.560;2024-03-08T15:35:13;8.80;99.90
26947;DHT22;14501;52.282;10.560;2024-03-08T15:37:43;8.80;99.90
26947;DHT22;14501;52.282;10.560;2024-03-08T15:40:12;8.70;99.90
26947;DHT22;14501;52.282;10.560;2024-03-08T15:42:56;8.70;99.90
26947;DHT22;14501;52.282;10.560;2024-03-08T15:45:23;8.60;99.90
26947;DHT22;14501;52.282;10.560;2024-03-08T15:47:50;8.60;99.90
26947;DHT22;14501;52.282;10.560;2024-03-08T15:50:15;8.60;99.90
26947;DHT22;14501;52.282;10.560;2024-03-08T15:52:45;8.60;99.90
26947;DHT22;14501;52.282;10.560;2024-03-08T15:55:19;8.50;99.90
26947;DHT22;14501;52.282;10.560;2024-03-08T15:57:48;8.50;99.90
26947;DHT22;14501;52.282;10.560;2024-03-08T16:00:18;8.50;99.90
26947;DHT22;14501;52.282;10.560;2024-03-08T16:03:01;8.50;99.90
26947;DHT22;14501;52.282;10.560;2024-03-08T16:05:28;8.50;99.90
26947;DHT22;14501;52.282;10.560;2024-03-08T16:07:54;8.40;99.90
26947;DHT22;14501;52.282;10.560;2024-03-08T16:10:21;8.40;99.90
26947;DHT22;14501;52.282;10.560;2024-03-08T16:12:49;8.30;99.90
26947;DHT22;14501;52.282;10.560;2024-03-08T16:15:15;8.30;99.90
26947;DHT22;14501;52.282;10.560;2024-03-08T16:17:41;8.20;99.90
26947;DHT22;14501;52.282;10.560;2024-03-08T16:20:07;8.20;99.90
26947;DHT22;14501;52.282;10.560;2024-03-08T16:22:37;8.10;99.90
26947;DHT22;14501;52.282;10.560;2024-03-08T16:25:05;8.10;99.90
26947;DHT22;14501;52.282;10.560;2024-03-08T16:27:32;8.10;99.90
26947;DHT22;14501;52.282;10.560;2024-03-08T16:29:57;8.00;99.90
26947;DHT22;14501;52.282;10.560;2024-03-08T16:32:23;7.90;99.90
26947;DHT22;14501;52.282;10.560;2024-03-08T16:34:49;7.90;99.90
26947;DHT22;14501;52.282;10.560;2024-03-08T16:37:16;7.80;99.90
26947;DHT22;14501;52.282;10.560;2024-03-08T16:39:42;7.80;99.90
26947;DHT22;14501;52.282;10.560;2024-03-08T16:42:08;7.70;99.90
26947;DHT22;14501;52.282;10.560;2024-03-08T16:44:33;7.60;99.90
26947;DHT22;14501;52.282;10.560;2024-03-08T16:46:59;7.60;99.90
26947;DHT22;14501;52.282;10.560;2024-03-08T16:49:25;7.60;99.90
26947;DHT22;14501;52.282;10.560;2024-03-08T16:51:51;7.50;99.90
26947;DHT22;14501;52.282;10.560;2024-03-08T16:54:16;7.50;99.90
26947;DHT22;14501;52.282;10.560;2024-03-08T16:56:43;7.50;99.90
26947;DHT22;14501;52.282;10.560;2024-03-08T16:59:10;7.40;99.90
26947;DHT22;14501;52.282;10.560;2024-03-08T17:01:36;7.30;99.90
26947;DHT22;14501;52.282;10.560;2024-03-08T17:04:03;7.30;99.90
26947;DHT22;14501;52.282;10.560;2024-03-08T17:06:30;7.20;99.90
26947;DHT22;14501;52.282;10.560;2024-03-08T17:08:56;7.20;99.90